sensor_id;sensor_type;location;lat;lon;timestamp;temperature;humidity
2010;DHT22;1008;47.404;8.502;2022-12-20T00:01:24;3.90;99.90
2010;DHT22;1008;47.404;8.502;2022-12-20T00:03:56;3.70;99.90
2010;DHT22;1008;47.404;8.502;2022-12-20T00:06:24;3.80;99.90
2010;DHT22;1008;47.404;8.502;2022-12-20T00:08:53;3.80;99.90
2010;DHT22;1008;47.404;8.502;2022-12-20T00:11:21;3.70;99.90
2010;DHT22;1008;47.404;8.502;2022-12-20T00:13:49;3.60;99.90
2010;DHT22;1008;47.404;8.502;2022-12-20T00:16:18;3.60;99.90
2010;DHT22;1008;47.404;8.502;2022-12-20T00:18:46;3.70;99.90
2010;DHT22;1008;47.404;8.502;2022-12-20T00:21:13;3.60;99.90
2010;DHT22;1008;47.404;8.502;2022-12-20T00:23:41;3.60;99.90
2010;DHT22;1008;47.404;8.502;2022-12-20T00:26:11;3.60;99.90
2010;DHT22;1008;47.404;8.502;2022-12-20T00:28:39;3.50;99.90
2010;DHT22;1008;47.404;8.502;2022-12-20T00:31:08;3.60;99.90
2010;DHT22;1008;47.404;8.502;2022-12-20T00:33:36;3.60;99.90
2010;DHT22;1008;47.404;8.502;2022-12-20T00:36:04;3.60;99.90
2010;DHT22;1008;47.404;8.502;2022-12-20T00:38:32;3.50;99.90
2010;DHT22;1008;47.404;8.502;2022-12-20T00:41:00;3.50;99.90
2010;DHT22;1008;47.404;8.502;2022-12-20T00:43:29;3.40;99.90
2010;DHT22;1008;47.404;8.502;2022-12-20T00:45:56;3.50;99.90
2010;DHT22;1008;47.404;8.502;2022-12-20T00:48:23;3.50;99.90
2010;DHT22;1008;47.404;8.502;2022-12-20T00:50:50;3.50;99.90
2010;DHT22;1008;47.404;8.502;2022-12-20T00:53:17;3.50;99.90
2010;DHT22;1008;47.404;8.502;2022-12-20T00:55:45;3.40;99.90
2010;DHT22;1008;47.404;8.502;2022-12-20T00:58:12;3.50;99.90
2010;DHT22;1008;47.404;8.502;2022-12-20T01:00:40;3.50;99.90
2010;DHT22;1008;47.404;8.502;2022-12-20T01:03:08;3.60;99.90
2010;DHT22;1008;47.404;8.502;2022-12-20T01:05:35;3.60;99.90
2010;DHT22;1008;47.404;8.502;2022-12-20T01:08:02;3.70;99.90
2010;DHT22;1008;47.404;8.502;2022-12-20T01:10:29;3.60;99.90
2010;DHT22;1008;47.404;8.502;2022-12-20T01:12:56;3.60;99.90
2010;DHT22;1008;47.404;8.502;2022-12-20T01:15:22;3.70;99.90
2010;DHT22;1008;47.404;8.502;2022-12-20T01:17:50;3.70;99.90
2010;DHT22;1008;47.404;8.502;2022-12-20T01:20:17;3.60;99.90
2010;DHT22;1008;47.404;8.502;2022-12-20T01:22:44;3.60;99.90
2010;DHT22;1008;47.404;8.502;2022-12-20T01:25:11;3.70;99.90
2010;DHT22;1008;47.404;8.502;2022-12-20T01:27:38;3.70;99.90
2010;DHT22;1008;47.404;8.502;2022-12-20T01:30:05;3.90;99.90
2010;DHT22;1008;47.404;8.502;2022-12-20T01:32:32;4.00;99.90
2010;DHT22;1008;47.404;8.502;2022-12-20T01:35:00;3.90;99.90
2010;DHT22;1008;47.404;8.502;2022-12-20T01:37:27;3.90;99.90
2010;DHT22;1008;47.404;8.502;2022-12-20T01:39:54;4.00;99.90
2010;DHT22;1008;47.404;8.502;2022-12-20T01:42:21;3.90;99.90
2010;DHT22;1008;47.404;8.502;2022-12-20T01:44:56;3.80;99.90
2010;DHT22;1008;47.404;8.502;2022-12-20T01:47:24;3.80;99.90
2010;DHT22;1008;47.404;8.502;2022-12-20T01:49:53;3.70;99.90
2010;DHT22;1008;47.404;8.502;2022-12-20T01:52:27;3.70;99.90
2010;DHT22;1008;47.404;8.502;2022-12-20T01:55:02;3.80;99.90
2010;DHT22;1008;47.404;8.502;2022-12-20T01:57:33;3.80;99.90
2010;DHT22;1008;47.404;8.502;2022-12-20T02:00:03;3.80;99.90
2010;DHT22;1008;47.404;8.502;2022-12-20T02:02:31;3.90;99.90
2010;DHT22;1008;47.404;8.502;2022-12-20T02:04:58;4.00;99.90
2010;DHT22;1008;47.404;8.502;2022-12-20T02:07:29;4.00;99.90
2010;DHT22;1008;47.404;8.502;2022-12-20T02:09:58;4.10;99.90
2010;DHT22;1008;47.404;8.502;2022-12-20T02:12:29;4.10;99.90
2010;DHT22;1008;47.404;8.502;2022-12-20T02:15:12;4.10;99.90
2010;DHT22;1008;47.404;8.502;2022-12-20T02:17:46;4.20;99.90
2010;DHT22;1008;47.404;8.502;2022-12-20T02:20:45;4.10;99.90
2010;DHT22;1008;47.404;8.502;2022-12-20T02:23:45;4.20;99.90
2010;DHT22;1008;47.404;8.502;2022-12-20T02:26:47;4.20;99.90
2010;DHT22;1008;47.404;8.502;2022-12-20T02:29:24;4.20;99.90
2010;DHT22;1008;47.404;8.502;2022-12-20T02:32:01;4.20;99.90
2010;DHT22;1008;47.404;8.502;2022-12-20T02:34:32;4.10;99.90
2010;DHT22;1008;47.404;8.502;2022-12-20T02:37:00;4.00;99.90
2010;DHT22;1008;47.404;8.502;2022-12-20T02:39:28;4.00;99.90
2010;DHT22;1008;47.404;8.502;2022-12-20T02:42:00;3.90;99.90
2010;DHT22;1008;47.404;8.502;2022-12-20T02:44:29;3.70;99.90
2010;DHT22;1008;47.404;8.502;2022-12-20T02:47:20;3.60;99.90
2010;DHT22;1008;47.404;8.502;2022-12-20T02:49:48;3.50;99.90
2010;DHT22;1008;47.404;8.502;2022-12-20T02:52:17;3.50;99.90
2010;DHT22;1008;47.404;8.502;2022-12-20T02:54:46;3.50;99.90
2010;DHT22;1008;47.404;8.502;2022-12-20T02:57:18;3.50;99.90
2010;DHT22;1008;47.404;8.502;2022-12-20T02:59:52;3.70;99.90
2010;DHT22;1008;47.404;8.502;2022-12-20T03:02:25;3.50;99.90
2010;DHT22;1008;47.404;8.502;2022-12-20T03:04:52;3.50;99.90
2010;DHT22;1008;47.404;8.502;2022-12-20T03:07:20;3.40;99.90
2010;DHT22;1008;47.404;8.502;2022-12-20T03:09:47;3.40;99.90
2010;DHT22;1008;47.404;8.502;2022-12-20T03:12:14;3.50;99.90
2010;DHT22;1008;47.404;8.502;2022-12-20T03:14:42;3.50;99.90
2010;DHT22;1008;47.404;8.502;2022-12-20T03:17:09;3.40;99.90
2010;DHT22;1008;47.404;8.502;2022-12-20T03:19:37;3.50;99.90
2010;DHT22;1008;47.404;8.502;2022-12-20T03:22:04;3.50;99.90
2010;DHT22;1008;47.404;8.502;2022-12-20T03:24:31;3.40;99.90
2010;DHT22;1008;47.404;8.502;2022-12-20T03:26:58;3.50;99.90
2010;DHT22;1008;47.404;8.502;2022-12-20T03:29:25;3.50;99.90
2010;DHT22;1008;47.404;8.502;2022-12-20T03:31:52;3.50;99.90
2010;DHT22;1008;47.404;8.502;2022-12-20T03:34:19;3.40;99.90
2010;DHT22;1008;47.404;8.502;2022-12-20T03:36:47;3.30;99.90
2010;DHT22;1008;47.404;8.502;2022-12-20T03:39:14;3.30;99.90
2010;DHT22;1008;47.404;8.502;2022-12-20T03:41:41;3.40;99.90
2010;DHT22;1008;47.404;8.502;2022-12-20T03:44:08;3.40;99.90
2010;DHT22;1008;47.404;8.502;2022-12-20T03:46:34;3.40;99.90
2010;DHT22;1008;47.404;8.502;2022-12-20T03:49:01;3.30;99.90
2010;DHT22;1008;47.404;8.502;2022-12-20T03:51:28;3.20;99.90
2010;DHT22;1008;47.404;8.502;2022-12-20T03:53:56;3.40;99.90
2010;DHT22;1008;47.404;8.502;2022-12-20T03:56:23;3.30;99.90
2010;DHT22;1008;47.404;8.502;2022-12-20T03:58:50;3.50;99.90
2010;DHT22;1008;47.404;8.502;2022-12-20T04:01:18;3.60;99.90
2010;DHT22;1008;47.404;8.502;2022-12-20T04:03:45;3.60;99.90
2010;DHT22;1008;47.404;8.502;2022-12-20T04:06:12;3.60;99.90
2010;DHT22;1008;47.404;8.502;2022-12-20T04:08:39;3.60;99.90
2010;DHT22;1008;47.404;8.502;2022-12-20T04:11:07;3.50;99.90
2010;DHT22;1008;47.404;8.502;2022-12-20T04:13:44;3.50;99.90
2010;DHT22;1008;47.404;8.502;2022-12-20T04:16:13;3.50;99.90
2010;DHT22;1008;47.404;8.502;2022-12-20T04:18:40;3.50;99.90
2010;DHT22;1008;47.404;8.502;2022-12-20T04:21:09;3.60;99.90
2010;DHT22;1008;47.404;8.502;2022-12-20T04:23:37;3.60;99.90
2010;DHT22;1008;47.404;8.502;2022-12-20T04:26:06;3.50;99.90
2010;DHT22;1008;47.404;8.502;2022-12-20T04:28:34;3.50;99.90
2010;DHT22;1008;47.404;8.502;2022-12-20T04:31:01;3.50;99.90
2010;DHT22;1008;47.404;8.502;2022-12-20T04:33:28;3.50;99.90
2010;DHT22;1008;47.404;8.502;2022-12-20T04:35:55;3.50;99.90
2010;DHT22;1008;47.404;8.502;2022-12-20T04:38:22;3.50;99.90
2010;DHT22;1008;47.404;8.502;2022-12-20T04:40:50;3.50;99.90
2010;DHT22;1008;47.404;8.502;2022-12-20T04:43:18;3.40;99.90
2010;DHT22;1008;47.404;8.502;2022-12-20T04:45:46;3.30;99.90
2010;DHT22;1008;47.404;8.502;2022-12-20T04:48:14;3.30;99.90
2010;DHT22;1008;47.404;8.502;2022-12-20T04:50:41;3.40;99.90
2010;DHT22;1008;47.404;8.502;2022-12-20T04:53:10;3.50;99.90
2010;DHT22;1008;47.404;8.502;2022-12-20T04:56:00;3.50;99.90
2010;DHT22;1008;47.404;8.502;2022-12-20T04:58:29;3.40;99.90
2010;DHT22;1008;47.404;8.502;2022-12-20T05:00:56;3.40;99.90
2010;DHT22;1008;47.404;8.502;2022-12-20T05:03:24;3.50;99.90
2010;DHT22;1008;47.404;8.502;2022-12-20T05:05:51;3.40;99.90
2010;DHT22;1008;47.404;8.502;2022-12-20T05:08:19;3.40;99.90
2010;DHT22;1008;47.404;8.502;2022-12-20T05:10:46;3.30;99.90
2010;DHT22;1008;47.404;8.502;2022-12-20T05:13:13;3.30;99.90
2010;DHT22;1008;47.404;8.502;2022-12-20T05:15:41;3.40;99.90
2010;DHT22;1008;47.404;8.502;2022-12-20T05:18:08;3.20;99.90
2010;DHT22;1008;47.404;8.502;2022-12-20T05:20:35;3.30;99.90
2010;DHT22;1008;47.404;8.502;2022-12-20T05:23:02;3.20;99.90
2010;DHT22;1008;47.404;8.502;2022-12-20T05:25:48;3.20;99.90
2010;DHT22;1008;47.404;8.502;2022-12-20T05:28:29;3.30;99.90
2010;DHT22;1008;47.404;8.502;2022-12-20T05:30:58;3.20;99.90
2010;DHT22;1008;47.404;8.502;2022-12-20T05:33:25;3.20;99.90
2010;DHT22;1008;47.404;8.502;2022-12-20T05:35:52;3.20;99.90
2010;DHT22;1008;47.404;8.502;2022-12-20T05:38:19;3.10;99.90
2010;DHT22;1008;47.404;8.502;2022-12-20T05:40:47;3.10;99.90
2010;DHT22;1008;47.404;8.502;2022-12-20T05:43:15;2.90;99.90
2010;DHT22;1008;47.404;8.502;2022-12-20T05:45:44;3.20;99.90
2010;DHT22;1008;47.404;8.502;2022-12-20T05:48:13;3.00;99.90
2010;DHT22;1008;47.404;8.502;2022-12-20T05:50:39;3.10;99.90
2010;DHT22;1008;47.404;8.502;2022-12-20T05:53:08;3.20;99.90
2010;DHT22;1008;47.404;8.502;2022-12-20T05:55:35;3.20;99.90
2010;DHT22;1008;47.404;8.502;2022-12-20T05:58:02;3.30;99.90
2010;DHT22;1008;47.404;8.502;2022-12-20T06:00:28;3.30;99.90
2010;DHT22;1008;47.404;8.502;2022-12-20T06:02:55;3.40;99.90
2010;DHT22;1008;47.404;8.502;2022-12-20T06:05:23;3.40;99.90
2010;DHT22;1008;47.404;8.502;2022-12-20T06:07:50;3.40;99.90
2010;DHT22;1008;47.404;8.502;2022-12-20T06:10:17;3.60;99.90
2010;DHT22;1008;47.404;8.502;2022-12-20T06:12:44;3.30;99.90
2010;DHT22;1008;47.404;8.502;2022-12-20T06:15:10;3.30;99.90
2010;DHT22;1008;47.404;8.502;2022-12-20T06:17:37;3.30;99.90
2010;DHT22;1008;47.404;8.502;2022-12-20T06:20:06;3.40;99.90
2010;DHT22;1008;47.404;8.502;2022-12-20T06:22:34;3.30;99.90
2010;DHT22;1008;47.404;8.502;2022-12-20T06:25:02;3.40;99.90
2010;DHT22;1008;47.404;8.502;2022-12-20T06:27:29;3.50;99.90
2010;DHT22;1008;47.404;8.502;2022-12-20T06:29:56;3.50;99.90
2010;DHT22;1008;47.404;8.502;2022-12-20T06:32:22;3.40;99.90
2010;DHT22;1008;47.404;8.502;2022-12-20T06:34:50;3.50;99.90
2010;DHT22;1008;47.404;8.502;2022-12-20T06:37:17;3.30;99.90
2010;DHT22;1008;47.404;8.502;2022-12-20T06:39:45;3.30;99.90
2010;DHT22;1008;47.404;8.502;2022-12-20T06:42:12;3.20;99.90
2010;DHT22;1008;47.404;8.502;2022-12-20T06:44:39;3.30;99.90
2010;DHT22;1008;47.404;8.502;2022-12-20T06:47:05;3.40;99.90
2010;DHT22;1008;47.404;8.502;2022-12-20T06:49:32;3.30;99.90
2010;DHT22;1008;47.404;8.502;2022-12-20T06:51:59;3.40;99.90
2010;DHT22;1008;47.404;8.502;2022-12-20T06:54:26;3.40;99.90
2010;DHT22;1008;47.404;8.502;2022-12-20T06:56:54;3.40;99.90
2010;DHT22;1008;47.404;8.502;2022-12-20T06:59:20;3.40;99.90
2010;DHT22;1008;47.404;8.502;2022-12-20T07:01:47;3.60;99.90
2010;DHT22;1008;47.404;8.502;2022-12-20T07:04:14;3.40;99.90
2010;DHT22;1008;47.404;8.502;2022-12-20T07:06:41;3.50;99.90
2010;DHT22;1008;47.404;8.502;2022-12-20T07:09:07;3.60;99.90
2010;DHT22;1008;47.404;8.502;2022-12-20T07:11:35;3.60;99.90
2010;DHT22;1008;47.404;8.502;2022-12-20T07:14:04;3.60;99.90
2010;DHT22;1008;47.404;8.502;2022-12-20T07:16:30;3.70;99.90
2010;DHT22;1008;47.404;8.502;2022-12-20T07:18:57;3.50;99.90
2010;DHT22;1008;47.404;8.502;2022-12-20T07:21:24;3.40;99.90
2010;DHT22;1008;47.404;8.502;2022-12-20T07:23:51;3.30;99.90
2010;DHT22;1008;47.404;8.502;2022-12-20T07:26:17;3.20;99.90
2010;DHT22;1008;47.404;8.502;2022-12-20T07:28:44;3.20;99.90
2010;DHT22;1008;47.404;8.502;2022-12-20T07:31:12;3.30;99.90
2010;DHT22;1008;47.404;8.502;2022-12-20T07:33:39;3.30;99.90
2010;DHT22;1008;47.404;8.502;2022-12-20T07:36:09;3.30;99.90
2010;DHT22;1008;47.404;8.502;2022-12-20T07:38:36;3.30;99.90
2010;DHT22;1008;47.404;8.502;2022-12-20T07:41:06;3.40;99.90
2010;DHT22;1008;47.404;8.502;2022-12-20T07:43:33;3.40;99.90
2010;DHT22;1008;47.404;8.502;2022-12-20T07:46:01;3.50;99.90
2010;DHT22;1008;47.404;8.502;2022-12-20T07:48:29;3.60;99.90
2010;DHT22;1008;47.404;8.502;2022-12-20T07:50:59;3.60;99.90
2010;DHT22;1008;47.404;8.502;2022-12-20T07:53:27;3.60;99.90
2010;DHT22;1008;47.404;8.502;2022-12-20T07:55:56;3.70;99.90
2010;DHT22;1008;47.404;8.502;2022-12-20T07:58:24;4.00;99.90
2010;DHT22;1008;47.404;8.502;2022-12-20T08:00:52;3.70;99.90
2010;DHT22;1008;47.404;8.502;2022-12-20T08:03:21;3.70;99.90
2010;DHT22;1008;47.404;8.502;2022-12-20T08:05:52;3.70;99.90
2010;DHT22;1008;47.404;8.502;2022-12-20T08:08:20;3.90;99.90
2010;DHT22;1008;47.404;8.502;2022-12-20T08:10:48;3.90;99.90
2010;DHT22;1008;47.404;8.502;2022-12-20T08:13:15;4.10;99.90
2010;DHT22;1008;47.404;8.502;2022-12-20T08:15:42;4.00;99.90
2010;DHT22;1008;47.404;8.502;2022-12-20T08:18:09;4.10;99.90
2010;DHT22;1008;47.404;8.502;2022-12-20T08:20:36;4.10;99.90
2010;DHT22;1008;47.404;8.502;2022-12-20T08:23:04;4.20;99.90
2010;DHT22;1008;47.404;8.502;2022-12-20T08:25:32;4.20;99.90
2010;DHT22;1008;47.404;8.502;2022-12-20T08:27:59;4.20;99.90
2010;DHT22;1008;47.404;8.502;2022-12-20T08:30:26;4.20;99.90
2010;DHT22;1008;47.404;8.502;2022-12-20T08:32:53;4.10;99.90
2010;DHT22;1008;47.404;8.502;2022-12-20T08:35:21;4.10;99.90
2010;DHT22;1008;47.404;8.502;2022-12-20T08:37:50;4.10;99.90
2010;DHT22;1008;47.404;8.502;2022-12-20T08:40:18;4.00;99.90
2010;DHT22;1008;47.404;8.502;2022-12-20T08:42:45;4.10;99.90
2010;DHT22;1008;47.404;8.502;2022-12-20T08:45:12;4.20;99.90
2010;DHT22;1008;47.404;8.502;2022-12-20T08:47:39;4.50;99.90
2010;DHT22;1008;47.404;8.502;2022-12-20T08:50:07;4.20;99.90
2010;DHT22;1008;47.404;8.502;2022-12-20T08:52:34;4.20;99.90
2010;DHT22;1008;47.404;8.502;2022-12-20T08:55:01;4.10;99.90
2010;DHT22;1008;47.404;8.502;2022-12-20T08:57:29;4.20;99.90
2010;DHT22;1008;47.404;8.502;2022-12-20T08:59:55;4.40;99.90
2010;DHT22;1008;47.404;8.502;2022-12-20T09:02:22;4.50;99.90
2010;DHT22;1008;47.404;8.502;2022-12-20T09:04:49;4.50;99.90
2010;DHT22;1008;47.404;8.502;2022-12-20T09:07:16;4.70;99.90
2010;DHT22;1008;47.404;8.502;2022-12-20T09:09:43;4.90;99.90
2010;DHT22;1008;47.404;8.502;2022-12-20T09:12:11;5.00;99.90
2010;DHT22;1008;47.404;8.502;2022-12-20T09:14:39;5.00;99.90
2010;DHT22;1008;47.404;8.502;2022-12-20T09:17:06;5.20;99.90
2010;DHT22;1008;47.404;8.502;2022-12-20T09:19:33;5.20;99.90
2010;DHT22;1008;47.404;8.502;2022-12-20T09:22:00;5.00;99.90
2010;DHT22;1008;47.404;8.502;2022-12-20T09:24:27;5.20;99.90
2010;DHT22;1008;47.404;8.502;2022-12-20T09:26:53;5.30;99.90
2010;DHT22;1008;47.404;8.502;2022-12-20T09:29:20;5.40;99.90
2010;DHT22;1008;47.404;8.502;2022-12-20T09:31:49;5.40;99.90
2010;DHT22;1008;47.404;8.502;2022-12-20T09:34:16;5.30;99.90
2010;DHT22;1008;47.404;8.502;2022-12-20T09:36:43;5.30;99.90
2010;DHT22;1008;47.404;8.502;2022-12-20T09:39:10;5.30;99.90
2010;DHT22;1008;47.404;8.502;2022-12-20T09:41:38;5.30;99.90
2010;DHT22;1008;47.404;8.502;2022-12-20T09:44:14;5.40;99.90
2010;DHT22;1008;47.404;8.502;2022-12-20T09:46:43;5.40;99.90
2010;DHT22;1008;47.404;8.502;2022-12-20T09:49:15;5.30;99.90
2010;DHT22;1008;47.404;8.502;2022-12-20T09:54:52;5.30;99.90
2010;DHT22;1008;47.404;8.502;2022-12-20T09:57:26;5.50;99.90
2010;DHT22;1008;47.404;8.502;2022-12-20T09:59:56;5.60;99.90
2010;DHT22;1008;47.404;8.502;2022-12-20T10:02:24;5.80;99.90
2010;DHT22;1008;47.404;8.502;2022-12-20T10:04:53;5.80;99.90
2010;DHT22;1008;47.404;8.502;2022-12-20T10:07:30;5.70;99.90
2010;DHT22;1008;47.404;8.502;2022-12-20T10:10:14;5.80;99.90
2010;DHT22;1008;47.404;8.502;2022-12-20T10:12:47;5.90;99.90
2010;DHT22;1008;47.404;8.502;2022-12-20T10:15:19;5.90;99.90
2010;DHT22;1008;47.404;8.502;2022-12-20T10:18:02;5.90;99.90
2010;DHT22;1008;47.404;8.502;2022-12-20T10:20:40;6.20;99.90
2010;DHT22;1008;47.404;8.502;2022-12-20T10:23:15;6.30;99.90
2010;DHT22;1008;47.404;8.502;2022-12-20T10:25:49;6.40;99.90
2010;DHT22;1008;47.404;8.502;2022-12-20T10:28:16;6.60;99.90
2010;DHT22;1008;47.404;8.502;2022-12-20T10:30:43;7.00;99.90
2010;DHT22;1008;47.404;8.502;2022-12-20T10:33:18;7.30;99.90
2010;DHT22;1008;47.404;8.502;2022-12-20T10:35:47;7.60;99.90
2010;DHT22;1008;47.404;8.502;2022-12-20T10:38:15;7.60;99.90
2010;DHT22;1008;47.404;8.502;2022-12-20T10:40:44;7.90;99.90
2010;DHT22;1008;47.404;8.502;2022-12-20T10:43:16;8.10;99.90
2010;DHT22;1008;47.404;8.502;2022-12-20T10:45:54;8.30;99.90
2010;DHT22;1008;47.404;8.502;2022-12-20T10:48:25;8.60;99.90
2010;DHT22;1008;47.404;8.502;2022-12-20T10:50:58;8.70;99.90
2010;DHT22;1008;47.404;8.502;2022-12-20T10:53:25;9.10;99.90
2010;DHT22;1008;47.404;8.502;2022-12-20T10:56:03;9.60;99.90
2010;DHT22;1008;47.404;8.502;2022-12-20T10:58:35;10.00;99.90
2010;DHT22;1008;47.404;8.502;2022-12-20T11:01:11;10.00;99.90
2010;DHT22;1008;47.404;8.502;2022-12-20T11:03:53;10.00;99.90
2010;DHT22;1008;47.404;8.502;2022-12-20T11:06:24;10.10;99.90
2010;DHT22;1008;47.404;8.502;2022-12-20T11:08:52;10.10;99.90
2010;DHT22;1008;47.404;8.502;2022-12-20T11:11:21;9.80;99.90
2010;DHT22;1008;47.404;8.502;2022-12-20T11:13:49;9.50;99.90
2010;DHT22;1008;47.404;8.502;2022-12-20T11:16:25;9.40;99.90
2010;DHT22;1008;47.404;8.502;2022-12-20T11:19:02;9.20;99.90
2010;DHT22;1008;47.404;8.502;2022-12-20T11:21:39;9.20;99.90
2010;DHT22;1008;47.404;8.502;2022-12-20T11:24:10;9.30;99.90
2010;DHT22;1008;47.404;8.502;2022-12-20T11:26:57;9.10;99.90
2010;DHT22;1008;47.404;8.502;2022-12-20T11:29:47;9.10;99.90
2010;DHT22;1008;47.404;8.502;2022-12-20T11:32:30;8.80;99.90
2010;DHT22;1008;47.404;8.502;2022-12-20T11:35:08;9.00;99.90
2010;DHT22;1008;47.404;8.502;2022-12-20T11:37:44;9.10;99.90
2010;DHT22;1008;47.404;8.502;2022-12-20T11:40:24;8.90;99.90
2010;DHT22;1008;47.404;8.502;2022-12-20T11:43:09;8.90;99.90
2010;DHT22;1008;47.404;8.502;2022-12-20T11:45:46;8.80;99.90
2010;DHT22;1008;47.404;8.502;2022-12-20T11:48:29;8.80;99.90
2010;DHT22;1008;47.404;8.502;2022-12-20T11:51:03;8.60;99.90
2010;DHT22;1008;47.404;8.502;2022-12-20T11:53:35;8.60;99.90
2010;DHT22;1008;47.404;8.502;2022-12-20T11:56:07;8.70;99.90
2010;DHT22;1008;47.404;8.502;2022-12-20T11:58:46;8.40;99.90
2010;DHT22;1008;47.404;8.502;2022-12-20T12:01:18;8.30;99.90
2010;DHT22;1008;47.404;8.502;2022-12-20T12:03:51;8.10;99.90
2010;DHT22;1008;47.404;8.502;2022-12-20T12:06:24;8.00;99.90
2010;DHT22;1008;47.404;8.502;2022-12-20T12:08:58;7.70;99.90
2010;DHT22;1008;47.404;8.502;2022-12-20T12:11:30;7.70;99.90
2010;DHT22;1008;47.404;8.502;2022-12-20T12:14:00;7.70;99.90
2010;DHT22;1008;47.404;8.502;2022-12-20T12:16:30;8.10;99.90
2010;DHT22;1008;47.404;8.502;2022-12-20T12:19:00;8.10;99.90
2010;DHT22;1008;47.404;8.502;2022-12-20T12:21:30;8.20;99.90
2010;DHT22;1008;47.404;8.502;2022-12-20T12:24:06;8.20;99.90
2010;DHT22;1008;47.404;8.502;2022-12-20T12:26:37;8.50;99.90
2010;DHT22;1008;47.404;8.502;2022-12-20T12:29:10;9.00;99.90
2010;DHT22;1008;47.404;8.502;2022-12-20T12:31:40;9.80;99.90
2010;DHT22;1008;47.404;8.502;2022-12-20T12:34:16;10.60;99.90
2010;DHT22;1008;47.404;8.502;2022-12-20T12:37:23;11.10;99.90
2010;DHT22;1008;47.404;8.502;2022-12-20T12:43:04;12.50;99.90
2010;DHT22;1008;47.404;8.502;2022-12-20T12:45:36;12.70;99.90
2010;DHT22;1008;47.404;8.502;2022-12-20T12:48:06;13.20;99.90
2010;DHT22;1008;47.404;8.502;2022-12-20T12:50:41;13.20;99.90
2010;DHT22;1008;47.404;8.502;2022-12-20T12:53:13;13.40;99.90
2010;DHT22;1008;47.404;8.502;2022-12-20T12:55:44;13.00;99.90
2010;DHT22;1008;47.404;8.502;2022-12-20T12:58:13;12.80;99.90
2010;DHT22;1008;47.404;8.502;2022-12-20T13:00:48;12.40;99.90
2010;DHT22;1008;47.404;8.502;2022-12-20T13:03:33;12.00;99.90
2010;DHT22;1008;47.404;8.502;2022-12-20T13:09:20;11.60;99.90
2010;DHT22;1008;47.404;8.502;2022-12-20T13:11:52;11.40;99.90
2010;DHT22;1008;47.404;8.502;2022-12-20T13:14:48;11.80;99.90
2010;DHT22;1008;47.404;8.502;2022-12-20T13:17:49;12.10;99.90
2010;DHT22;1008;47.404;8.502;2022-12-20T13:20:21;11.80;99.90
2010;DHT22;1008;47.404;8.502;2022-12-20T13:23:09;11.80;99.90
2010;DHT22;1008;47.404;8.502;2022-12-20T13:25:40;12.20;99.90
2010;DHT22;1008;47.404;8.502;2022-12-20T13:28:45;12.50;99.90
2010;DHT22;1008;47.404;8.502;2022-12-20T13:31:31;13.00;99.90
2010;DHT22;1008;47.404;8.502;2022-12-20T13:34:02;13.10;99.90
2010;DHT22;1008;47.404;8.502;2022-12-20T13:36:36;13.00;99.90
2010;DHT22;1008;47.404;8.502;2022-12-20T13:39:32;12.80;99.90
2010;DHT22;1008;47.404;8.502;2022-12-20T13:42:15;13.00;99.90
2010;DHT22;1008;47.404;8.502;2022-12-20T13:44:46;12.90;99.90
2010;DHT22;1008;47.404;8.502;2022-12-20T13:47:25;12.70;99.90
2010;DHT22;1008;47.404;8.502;2022-12-20T13:49:54;12.80;99.90
2010;DHT22;1008;47.404;8.502;2022-12-20T13:52:24;12.70;99.90
2010;DHT22;1008;47.404;8.502;2022-12-20T13:54:56;11.90;99.90
2010;DHT22;1008;47.404;8.502;2022-12-20T13:57:28;11.90;99.90
2010;DHT22;1008;47.404;8.502;2022-12-20T13:59:59;11.70;99.90
2010;DHT22;1008;47.404;8.502;2022-12-20T14:02:29;11.50;99.90
2010;DHT22;1008;47.404;8.502;2022-12-20T14:04:59;11.30;99.90
2010;DHT22;1008;47.404;8.502;2022-12-20T14:07:28;11.50;99.90
2010;DHT22;1008;47.404;8.502;2022-12-20T14:09:58;10.90;99.90
2010;DHT22;1008;47.404;8.502;2022-12-20T14:12:26;10.60;99.90
2010;DHT22;1008;47.404;8.502;2022-12-20T14:14:53;10.20;99.90
2010;DHT22;1008;47.404;8.502;2022-12-20T14:17:24;10.10;99.90
2010;DHT22;1008;47.404;8.502;2022-12-20T14:20:13;9.80;99.90
2010;DHT22;1008;47.404;8.502;2022-12-20T14:22:41;9.70;99.90
2010;DHT22;1008;47.404;8.502;2022-12-20T14:25:12;9.60;99.90
2010;DHT22;1008;47.404;8.502;2022-12-20T14:27:41;9.40;99.90
2010;DHT22;1008;47.404;8.502;2022-12-20T14:30:26;9.30;99.90
2010;DHT22;1008;47.404;8.502;2022-12-20T14:32:55;9.40;99.90
2010;DHT22;1008;47.404;8.502;2022-12-20T14:35:22;9.30;99.90
2010;DHT22;1008;47.404;8.502;2022-12-20T14:37:54;9.20;99.90
2010;DHT22;1008;47.404;8.502;2022-12-20T14:40:21;9.20;99.90
2010;DHT22;1008;47.404;8.502;2022-12-20T14:42:48;9.40;99.90
2010;DHT22;1008;47.404;8.502;2022-12-20T14:45:21;9.50;99.90
2010;DHT22;1008;47.404;8.502;2022-12-20T14:47:50;9.70;99.90
2010;DHT22;1008;47.404;8.502;2022-12-20T14:50:25;10.10;99.90
2010;DHT22;1008;47.404;8.502;2022-12-20T14:52:53;10.40;99.90
2010;DHT22;1008;47.404;8.502;2022-12-20T14:55:21;10.30;99.90
2010;DHT22;1008;47.404;8.502;2022-12-20T14:57:51;10.10;99.90
2010;DHT22;1008;47.404;8.502;2022-12-20T15:00:24;10.10;99.90
2010;DHT22;1008;47.404;8.502;2022-12-20T15:02:58;10.20;99.90
2010;DHT22;1008;47.404;8.502;2022-12-20T15:05:37;10.40;99.90
2010;DHT22;1008;47.404;8.502;2022-12-20T15:08:10;10.30;99.90
2010;DHT22;1008;47.404;8.502;2022-12-20T15:10:38;10.20;99.90
2010;DHT22;1008;47.404;8.502;2022-12-20T15:13:11;10.20;99.90
2010;DHT22;1008;47.404;8.502;2022-12-20T15:15:39;9.90;99.90
2010;DHT22;1008;47.404;8.502;2022-12-20T15:18:10;9.50;99.90
2010;DHT22;1008;47.404;8.502;2022-12-20T15:20:39;9.20;99.90
2010;DHT22;1008;47.404;8.502;2022-12-20T15:23:12;9.00;99.90
2010;DHT22;1008;47.404;8.502;2022-12-20T15:25:40;8.80;99.90
2010;DHT22;1008;47.404;8.502;2022-12-20T15:28:15;8.70;99.90
2010;DHT22;1008;47.404;8.502;2022-12-20T15:30:43;8.70;99.90
2010;DHT22;1008;47.404;8.502;2022-12-20T15:33:14;8.60;99.90
2010;DHT22;1008;47.404;8.502;2022-12-20T15:35:43;8.30;99.90
2010;DHT22;1008;47.404;8.502;2022-12-20T15:38:15;8.40;99.90
2010;DHT22;1008;47.404;8.502;2022-12-20T15:40:43;8.40;99.90
2010;DHT22;1008;47.404;8.502;2022-12-20T15:43:15;8.30;99.90
2010;DHT22;1008;47.404;8.502;2022-12-20T15:45:44;8.30;99.90
2010;DHT22;1008;47.404;8.502;2022-12-20T15:48:13;8.40;99.90
2010;DHT22;1008;47.404;8.502;2022-12-20T15:50:47;8.20;99.90
2010;DHT22;1008;47.404;8.502;2022-12-20T15:53:16;8.30;99.90
2010;DHT22;1008;47.404;8.502;2022-12-20T15:55:48;8.30;99.90
2010;DHT22;1008;47.404;8.502;2022-12-20T15:58:14;8.30;99.90
2010;DHT22;1008;47.404;8.502;2022-12-20T16:00:41;8.30;99.90
2010;DHT22;1008;47.404;8.502;2022-12-20T16:03:13;8.30;99.90
2010;DHT22;1008;47.404;8.502;2022-12-20T16:05:41;8.30;99.90
2010;DHT22;1008;47.404;8.502;2022-12-20T16:08:09;8.30;99.90
2010;DHT22;1008;47.404;8.502;2022-12-20T16:10:35;8.50;99.90
2010;DHT22;1008;47.404;8.502;2022-12-20T16:13:03;8.20;99.90
2010;DHT22;1008;47.404;8.502;2022-12-20T16:15:30;8.30;99.90
2010;DHT22;1008;47.404;8.502;2022-12-20T16:17:57;8.30;99.90
2010;DHT22;1008;47.404;8.502;2022-12-20T16:20:24;8.30;99.90
2010;DHT22;1008;47.404;8.502;2022-12-20T16:22:52;8.30;99.90
2010;DHT22;1008;47.404;8.502;2022-12-20T16:25:28;8.40;99.90
2010;DHT22;1008;47.404;8.502;2022-12-20T16:27:55;8.40;99.90
2010;DHT22;1008;47.404;8.502;2022-12-20T16:30:23;8.30;99.90
2010;DHT22;1008;47.404;8.502;2022-12-20T16:32:50;8.40;99.90
2010;DHT22;1008;47.404;8.502;2022-12-20T16:35:23;8.40;99.90
2010;DHT22;1008;47.404;8.502;2022-12-20T16:37:50;8.50;99.90
2010;DHT22;1008;47.404;8.502;2022-12-20T16:40:16;8.50;99.90
2010;DHT22;1008;47.404;8.502;2022-12-20T16:42:45;8.50;99.90
2010;DHT22;1008;47.404;8.502;2022-12-20T16:45:15;8.40;99.90